Impacts TAF Board
For situational awareness. Not to be used for flight planning purposes.
IDs:

KRSW - Ft Myers/SW Florida, FL, US

Issued at 2040 UTC 30 Jun 2022
Updated at 2229 UTC 30 Jun 2022
Potential Impact None Slight Moderate High
Time2153Z 30/23Z 01/00Z 01/01Z 01/02Z 01/03Z 01/04Z 01/05Z 01/06Z 01/07Z 01/08Z 01/09Z 01/10Z 01/11Z>>
Type OBS PRVL PRVL PRVL PRVL PRVL PRVL PRVL PRVL PRVL PRVL PRVL PRVL PRVL
VIS 3 >6 >6 >6 >6 >6 >6 >6 >6 >6 >6 >6 >6 >6
CIG 34 140 140 200 200 200 200 200 200 200 200 200 200 200
Cover OVC BKN BKN BKN BKN BKN BKN BKN BKN BKN BKN BKN BKN BKN
FltCat MVFR VFR VFR VFR VFR VFR VFR VFR VFR VFR VFR VFR VFR VFR
WX VCTS +RA BR VCTS VCTS -- -- -- -- -- -- -- -- -- -- --
WDir 350 220 220 VRB VRB VRB VRB VRB VRB VRB VRB VRB VRB VRB
WSpd 6 10 10 3 3 3 3 3 3 3 3 3 3 3
WGst -- -- -- -- -- -- -- -- -- -- -- -- -- --
WSHgt -- -- -- -- -- -- -- -- -- -- -- -- -- --
WSDir -- -- -- -- -- -- -- -- -- -- -- -- -- --
WSSpd -- -- -- -- -- -- -- -- -- -- -- -- -- --
Raw TAF
KRSW 302040Z 3021/0118 22010KT P6SM VCTS SCT030CB BKN140
  TEMPO 3021/3023 VRB15G25KT 2SM TSRA BKN025CB
  FM010100 VRB03KT P6SM SCT030 BKN200
  FM011600 13006KT P6SM FEW200


Raw METAR
KRSW 302153Z 35006KT 3SM VCTS +RA BR BKN034 BKN090 OVC110 24/23 A3008 RMK AO2 PK WND 15039/2128 WSHFT 2054 LTG DSNT ALQDS RAB21 TSE44 SLP185 P0079 T02440228
KRSW 302148Z 08004KT 2SM VCTS +RA BKN036 OVC060 25/22 A3009 RMK AO2 PK WND 15039/2128 WSHFT 2054 LTG DSNT ALQDS RAB21 TSE44 P0078
KRSW 302143Z 13005KT 1 1/2SM +TSRA BKN030 BKN060 25/22 A3009 RMK AO2 PK WND 15039/2128 WSHFT 2054 LTG DSNT ALQDS RAB21 P0076 T02500217
KRSW 302137Z 14007G39KT 1/2SM +TSRA BKN018 BKN039 OVC055 26/22 A3008 RMK AO2 PK WND 15039/2128 WSHFT 2054 LTG DSNT ALQDS RAB21 P0068 T02610217
KRSW 302132Z 15007G39KT 120V190 1/4SM +TSRA BKN013 BKN037 OVC070 26/22 A3007 RMK AO2 PK WND 15039/2128 WSHFT 2054 LTG DSNT ALQDS RAB21 P0061 T02560217
KRSW 302128Z 16019G39KT 1/2SM +TSRA FG SCT015 BKN037 OVC080 25/23 A3008 RMK AO2 PK WND 15039/2128 WSHFT 2054 LTG DSNT ALQDS RAB21 P0042 T02500228
KRSW 302108Z 14021G29KT 10SM TS BKN034 BKN060 28/23 A3006 RMK AO2 PK WND 14029/2106 WSHFT 2054 LTG DSNT ALQDS T02830228
KRSW 302053Z 25012G21KT 10SM TS CLR 32/24 A3005 RMK AO2 LTG DSNT E AND SE AND W TSB23 SLP172 T03170244 55015
KRSW 302029Z 23012KT 10SM TS CLR 33/24 A3004 RMK AO2 LTG DSNT E-S TSB23 T03330244
KRSW 301953Z 20007KT 10SM OVC050 33/24 A3004 RMK AO2 LTG DSNT SE AND S SLP170 T03280244

METAR Board
Radar Display
Forecast Discussion
For situational awareness. Not to be used for flight planning purposes.